createdAt,value
2023-01-12T00:07:49.489Z,2.4
2023-01-12T00:21:24.044Z,2
2023-01-12T00:27:55.262Z,2.2
2023-01-12T01:01:20.002Z,1.7
2023-01-12T01:08:01.783Z,2.1
2023-01-12T01:14:48.166Z,1.8
2023-01-12T01:21:28.783Z,2.4
2023-01-12T01:28:08.358Z,1.5
2023-01-12T01:34:37.743Z,1.6
2023-01-12T01:40:45.277Z,1.6
2023-01-12T01:46:55.447Z,1.6
2023-01-12T01:53:06.786Z,1.4
2023-01-12T01:59:27.357Z,1.6
2023-01-12T02:32:59.307Z,1.4
2023-01-12T02:39:39.600Z,1.4
2023-01-12T02:46:07.593Z,1.2
2023-01-12T03:06:22.985Z,1.3
2023-01-12T03:12:17.894Z,1.1
2023-01-12T03:18:16.717Z,1.4
2023-01-12T03:25:14.230Z,1.6
2023-01-12T03:31:04.049Z,2
2023-01-12T03:36:54.574Z,1.5
2023-01-12T03:42:45.665Z,1.8
2023-01-12T03:48:37.386Z,1.9
2023-01-12T03:54:28.401Z,1.7
2023-01-12T04:00:20.207Z,1.7
2023-01-12T04:06:11.468Z,2
2023-01-12T04:12:02.831Z,1.9
2023-01-12T04:17:54.139Z,2.1
2023-01-12T04:23:44.370Z,1.8
2023-01-12T04:29:35.334Z,2.2
2023-01-12T04:35:26.172Z,1.6
2023-01-12T04:41:17.959Z,1.8
2023-01-12T04:47:08.677Z,1.7
2023-01-12T04:52:59.366Z,1.7
2023-01-12T04:58:48.716Z,1.3
2023-01-12T05:04:38.611Z,1.7
2023-01-12T05:10:29.364Z,1.2
2023-01-12T05:16:20.368Z,1.2
2023-01-12T05:22:11.215Z,1.4
2023-01-12T05:28:03.284Z,1.2
2023-01-12T05:33:53.800Z,1.4
2023-01-12T05:39:46.448Z,1.1
2023-01-12T05:45:38.455Z,1.3
2023-01-12T05:51:29.231Z,1.4
2023-01-12T05:57:19.798Z,1.5
2023-01-12T06:03:10.828Z,1.4
2023-01-12T06:09:01.603Z,1.5
2023-01-12T06:14:52.547Z,0.9
2023-01-12T06:20:43.412Z,1.3
2023-01-12T06:26:35.391Z,1
2023-01-12T06:32:26.259Z,0.8
2023-01-12T06:38:19.194Z,0.8
2023-01-12T06:44:09.855Z,1.6
2023-01-12T06:50:00.480Z,1.7
2023-01-12T06:55:51.496Z,1.2
2023-01-12T07:02:50.341Z,1.6
2023-01-12T07:08:40.324Z,0.9
2023-01-12T07:14:32.193Z,1.1
2023-01-12T07:20:23.721Z,1
2023-01-12T07:26:15.328Z,0.9
2023-01-12T07:32:06.604Z,1.4
2023-01-12T07:37:57.231Z,1.1
2023-01-12T07:43:49.335Z,1.6
2023-01-12T07:49:40.896Z,1.1
2023-01-12T07:55:31.621Z,1.7
2023-01-12T08:01:22.572Z,1.3
2023-01-12T08:07:13.694Z,1.4
2023-01-12T08:13:04.623Z,1.3
2023-01-12T08:18:57.254Z,1.7
2023-01-12T08:24:48.676Z,1.5
2023-01-12T08:30:39.800Z,1.6
2023-01-12T08:36:30.731Z,1.4
2023-01-12T08:42:25.777Z,1.4
2023-01-12T08:48:20.146Z,1.4
2023-01-12T08:54:12.237Z,1.2
2023-01-12T09:00:03.495Z,1.2
2023-01-12T09:05:54.403Z,1.2
2023-01-12T09:11:45.509Z,1.1
2023-01-12T09:17:34.491Z,0.9
2023-01-12T09:23:23.806Z,0.9
2023-01-12T09:29:13.137Z,1.1
2023-01-12T09:35:03.178Z,1.2
2023-01-12T09:40:55.508Z,1
2023-01-12T09:46:45.107Z,1
2023-01-12T09:52:35.703Z,0.9
2023-01-12T09:58:26.269Z,0.7
2023-01-12T10:04:17.718Z,0.7
2023-01-12T10:10:08.360Z,1
2023-01-12T10:15:59.676Z,0.9
2023-01-12T10:21:49.411Z,0.8
2023-01-12T10:27:40.341Z,0.6
2023-01-12T10:33:28.708Z,0.8
2023-01-12T10:39:16.989Z,0.6
2023-01-12T10:45:05.198Z,0.8
2023-01-12T10:50:53.874Z,0.6
2023-01-12T10:56:42.644Z,0.5
2023-01-12T11:02:31.510Z,0.5
2023-01-12T11:08:20.195Z,0.7
2023-01-12T11:14:08.759Z,0.9
2023-01-12T11:19:57.372Z,0.7
2023-01-12T11:25:49.062Z,0.7
2023-01-12T11:31:37.722Z,0.7
2023-01-12T11:37:27.482Z,0.9
2023-01-12T11:43:19.513Z,0.9
2023-01-12T11:49:09.938Z,0.9
2023-01-12T11:55:00.305Z,0.8
2023-01-12T12:00:50.819Z,1
2023-01-12T12:06:40.732Z,0.9
2023-01-12T12:12:30.995Z,0.6
2023-01-12T12:18:21.124Z,0.7
2023-01-12T12:24:12.123Z,0.8
2023-01-12T12:30:01.981Z,0.7
2023-01-12T12:35:55.240Z,0.9
2023-01-12T12:41:48.251Z,0.9
2023-01-12T12:47:41.047Z,0.8
2023-01-12T12:53:32.499Z,0.8
2023-01-12T12:59:23.451Z,0.7
2023-01-12T13:05:13.951Z,0.9
2023-01-12T13:11:03.748Z,1.1
2023-01-12T13:16:55.363Z,0.8
2023-01-12T13:22:45.265Z,0.8
2023-01-12T13:28:35.352Z,0.9
2023-01-12T13:34:25.741Z,0.7
2023-01-12T13:40:18.091Z,0.7
2023-01-12T13:46:07.704Z,0.9
2023-01-12T13:51:57.353Z,0.5
2023-01-12T13:57:46.957Z,0.7
2023-01-12T14:03:36.861Z,1
2023-01-12T14:09:26.836Z,0.6
2023-01-12T14:15:16.561Z,0.6
2023-01-12T14:21:07.046Z,0.3
2023-01-12T14:26:56.713Z,0.5
2023-01-12T14:32:47.472Z,0.3
2023-01-12T14:38:37.530Z,0.6
2023-01-12T14:44:26.509Z,0.4
2023-01-12T14:50:18.599Z,0.4
2023-01-12T14:56:09.202Z,0.5
2023-01-12T15:01:58.849Z,0.8
2023-01-12T15:07:52.554Z,0.6
2023-01-12T15:13:43.072Z,0.5
2023-01-12T15:19:32.968Z,0.6
2023-01-12T15:25:23.380Z,0.4
2023-01-12T15:31:13.245Z,0.8
2023-01-12T15:37:04.275Z,0.8
2023-01-12T15:42:56.660Z,0.8
2023-01-12T15:48:46.678Z,0.5
2023-01-12T15:54:38.523Z,0.6
2023-01-12T16:00:28.563Z,0.7
2023-01-12T16:06:18.361Z,0.7
2023-01-12T16:12:09.315Z,0.8
2023-01-12T16:17:59.835Z,0.7
2023-01-12T16:23:50.418Z,0.7
2023-01-12T16:29:40.297Z,0.5
2023-01-12T16:35:30.417Z,0.4
2023-01-12T16:41:21.195Z,0.4
2023-01-12T16:47:11.601Z,0.7
2023-01-12T16:53:03.495Z,0.7
2023-01-12T16:59:55.718Z,0.7
2023-01-12T17:05:43.659Z,0.5
2023-01-12T17:11:39.624Z,0.6
2023-01-12T17:17:30.573Z,0.7
2023-01-12T17:23:21.105Z,0.7
2023-01-12T17:29:12.558Z,0.9
2023-01-12T17:35:04.436Z,0.7
2023-01-12T17:40:55.820Z,1.1
2023-01-12T17:46:44.736Z,1
2023-01-12T17:52:36.144Z,1
2023-01-12T17:58:27.435Z,1.5
2023-01-12T18:04:18.757Z,0.9
2023-01-12T18:10:10.332Z,0.7
2023-01-12T18:16:01.789Z,0.8
2023-01-12T18:21:51.856Z,1.5
2023-01-12T18:27:43.961Z,1.2
2023-01-12T18:33:34.282Z,0.7
2023-01-12T18:39:26.203Z,1.4
2023-01-12T18:45:17.008Z,1.1
2023-01-12T18:51:07.372Z,1.7
2023-01-12T18:56:58.359Z,1.2
2023-01-12T19:02:48.977Z,1
2023-01-12T19:08:44.534Z,1.1
2023-01-12T19:14:34.828Z,0.8
2023-01-12T19:20:26.743Z,0.7
2023-01-12T19:26:17.907Z,0.9
2023-01-12T19:32:09.317Z,1
2023-01-12T19:38:00.334Z,0.7
2023-01-12T19:43:51.885Z,0.9
2023-01-12T19:49:42.966Z,0.7
2023-01-12T19:55:33.972Z,0.5
2023-01-12T20:01:26.825Z,0.8
2023-01-12T20:07:17.694Z,1.3
2023-01-12T20:13:08.912Z,1.4
2023-01-12T20:19:00.562Z,1.1
2023-01-12T20:24:52.493Z,1
2023-01-12T20:30:44.905Z,0.9
2023-01-12T20:36:36.455Z,1
2023-01-12T20:42:29.129Z,0.7
2023-01-12T20:48:19.819Z,0.7
2023-01-12T20:54:12.018Z,0.9
2023-01-12T21:00:05.313Z,0.7
2023-01-12T21:05:55.715Z,0.7
2023-01-12T21:11:46.121Z,0.6
2023-01-12T21:17:36.652Z,0.7
2023-01-12T21:23:28.001Z,1
2023-01-12T21:29:18.500Z,0.7
2023-01-12T21:35:09.727Z,0.9
2023-01-12T21:41:00.092Z,1
2023-01-12T21:46:50.562Z,1.3
2023-01-12T21:52:44.888Z,0.7
2023-01-12T21:58:37.699Z,0.6
2023-01-12T22:04:28.542Z,1.2
2023-01-12T22:10:19.662Z,1
2023-01-12T22:16:10.609Z,0.8
2023-01-12T22:22:02.584Z,1
2023-01-12T22:27:53.035Z,0.5
2023-01-12T22:33:43.725Z,0.3
2023-01-12T22:39:33.440Z,0.4
2023-01-12T22:45:25.189Z,0.3
2023-01-12T22:51:15.823Z,0.3
2023-01-12T22:57:06.284Z,0.4
2023-01-12T23:03:00.773Z,0.4
2023-01-12T23:08:54.334Z,0.3
2023-01-12T23:14:47.303Z,0.2
2023-01-12T23:20:41.689Z,0.4
2023-01-12T23:26:35.731Z,0.3
2023-01-12T23:32:29.769Z,0.4
2023-01-12T23:38:23.795Z,0.3
2023-01-12T23:44:17.770Z,0.2
2023-01-12T23:50:12.335Z,0.4
2023-01-12T23:56:07.171Z,0.4
